sensor_id;sensor_type;location;lat;lon;timestamp;temperature;humidity
20712;DHT22;10517;50.742;4.224;2023-03-31T00:02:04;12.50;99.90
20712;DHT22;10517;50.742;4.224;2023-03-31T00:04:42;12.50;99.90
20712;DHT22;10517;50.742;4.224;2023-03-31T00:07:17;12.40;99.90
20712;DHT22;10517;50.742;4.224;2023-03-31T00:09:47;12.40;99.90
20712;DHT22;10517;50.742;4.224;2023-03-31T00:12:14;12.40;99.90
20712;DHT22;10517;50.742;4.224;2023-03-31T00:14:41;12.40;99.90
20712;DHT22;10517;50.742;4.224;2023-03-31T00:17:08;12.40;99.90
20712;DHT22;10517;50.742;4.224;2023-03-31T00:19:33;12.40;99.90
20712;DHT22;10517;50.742;4.224;2023-03-31T00:21:59;12.50;99.90
20712;DHT22;10517;50.742;4.224;2023-03-31T00:24:27;12.30;99.90
20712;DHT22;10517;50.742;4.224;2023-03-31T00:26:53;12.30;99.90
20712;DHT22;10517;50.742;4.224;2023-03-31T00:29:18;12.40;99.90
20712;DHT22;10517;50.742;4.224;2023-03-31T00:31:44;12.40;99.90
20712;DHT22;10517;50.742;4.224;2023-03-31T00:34:10;12.30;99.90
20712;DHT22;10517;50.742;4.224;2023-03-31T00:36:36;12.30;99.90
20712;DHT22;10517;50.742;4.224;2023-03-31T00:39:10;12.10;99.90
20712;DHT22;10517;50.742;4.224;2023-03-31T00:41:37;12.10;99.90
20712;DHT22;10517;50.742;4.224;2023-03-31T00:44:16;12.00;99.90
20712;DHT22;10517;50.742;4.224;2023-03-31T00:47:02;12.00;99.90
20712;DHT22;10517;50.742;4.224;2023-03-31T00:49:42;11.90;99.90
20712;DHT22;10517;50.742;4.224;2023-03-31T00:52:14;11.80;99.90
20712;DHT22;10517;50.742;4.224;2023-03-31T00:54:44;11.80;99.90
20712;DHT22;10517;50.742;4.224;2023-03-31T00:57:11;11.80;99.90
20712;DHT22;10517;50.742;4.224;2023-03-31T00:59:54;11.70;99.90
20712;DHT22;10517;50.742;4.224;2023-03-31T01:02:22;11.60;99.90
20712;DHT22;10517;50.742;4.224;2023-03-31T01:04:54;11.60;99.90
20712;DHT22;10517;50.742;4.224;2023-03-31T01:07:35;11.60;99.90
20712;DHT22;10517;50.742;4.224;2023-03-31T01:10:03;11.60;99.90
20712;DHT22;10517;50.742;4.224;2023-03-31T01:12:31;11.60;99.90
20712;DHT22;10517;50.742;4.224;2023-03-31T01:14:58;11.60;99.90
20712;DHT22;10517;50.742;4.224;2023-03-31T01:17:25;11.50;99.90
20712;DHT22;10517;50.742;4.224;2023-03-31T01:20:16;11.50;99.90
20712;DHT22;10517;50.742;4.224;2023-03-31T01:42:15;11.40;99.90
20712;DHT22;10517;50.742;4.224;2023-03-31T01:47:30;11.40;99.90
20712;DHT22;10517;50.742;4.224;2023-03-31T01:52:49;11.40;99.90
20712;DHT22;10517;50.742;4.224;2023-03-31T01:55:24;11.40;99.90
20712;DHT22;10517;50.742;4.224;2023-03-31T01:58:01;11.30;99.90
20712;DHT22;10517;50.742;4.224;2023-03-31T02:00:30;11.30;99.90
20712;DHT22;10517;50.742;4.224;2023-03-31T02:03:19;11.20;99.90
20712;DHT22;10517;50.742;4.224;2023-03-31T02:05:54;11.20;99.90
20712;DHT22;10517;50.742;4.224;2023-03-31T02:08:37;11.20;99.90
20712;DHT22;10517;50.742;4.224;2023-03-31T02:11:04;11.20;99.90
20712;DHT22;10517;50.742;4.224;2023-03-31T02:13:31;11.30;99.90
20712;DHT22;10517;50.742;4.224;2023-03-31T02:16:03;11.20;99.90
20712;DHT22;10517;50.742;4.224;2023-03-31T02:18:32;11.30;99.90
20712;DHT22;10517;50.742;4.224;2023-03-31T02:21:02;11.30;99.90
20712;DHT22;10517;50.742;4.224;2023-03-31T02:23:31;11.30;99.90
20712;DHT22;10517;50.742;4.224;2023-03-31T02:26:15;11.30;99.90
20712;DHT22;10517;50.742;4.224;2023-03-31T02:28:43;11.30;99.90
20712;DHT22;10517;50.742;4.224;2023-03-31T02:31:24;11.30;99.90
20712;DHT22;10517;50.742;4.224;2023-03-31T02:33:52;11.30;99.90
20712;DHT22;10517;50.742;4.224;2023-03-31T02:36:18;11.30;99.90
20712;DHT22;10517;50.742;4.224;2023-03-31T02:38:50;11.30;99.90
20712;DHT22;10517;50.742;4.224;2023-03-31T02:41:17;11.30;99.90
20712;DHT22;10517;50.742;4.224;2023-03-31T02:43:43;11.30;99.90
20712;DHT22;10517;50.742;4.224;2023-03-31T02:46:08;11.40;99.90
20712;DHT22;10517;50.742;4.224;2023-03-31T02:48:42;11.40;99.90
20712;DHT22;10517;50.742;4.224;2023-03-31T02:51:24;11.40;99.90
20712;DHT22;10517;50.742;4.224;2023-03-31T02:57:18;11.40;99.90
20712;DHT22;10517;50.742;4.224;2023-03-31T03:05:37;11.30;99.90
20712;DHT22;10517;50.742;4.224;2023-03-31T03:11:04;11.30;99.90
20712;DHT22;10517;50.742;4.224;2023-03-31T03:13:46;11.30;99.90
20712;DHT22;10517;50.742;4.224;2023-03-31T03:16:20;11.30;99.90
20712;DHT22;10517;50.742;4.224;2023-03-31T03:18:58;11.30;99.90
20712;DHT22;10517;50.742;4.224;2023-03-31T03:21:25;11.30;99.90
20712;DHT22;10517;50.742;4.224;2023-03-31T03:23:51;11.40;99.90
20712;DHT22;10517;50.742;4.224;2023-03-31T03:26:18;11.30;99.90
20712;DHT22;10517;50.742;4.224;2023-03-31T03:28:48;11.30;99.90
20712;DHT22;10517;50.742;4.224;2023-03-31T03:31:15;11.30;99.90
20712;DHT22;10517;50.742;4.224;2023-03-31T03:33:41;11.20;99.90
20712;DHT22;10517;50.742;4.224;2023-03-31T03:36:07;11.00;99.90
20712;DHT22;10517;50.742;4.224;2023-03-31T03:38:32;11.00;99.90
20712;DHT22;10517;50.742;4.224;2023-03-31T03:40:58;10.90;99.90
20712;DHT22;10517;50.742;4.224;2023-03-31T03:43:24;10.90;99.90
20712;DHT22;10517;50.742;4.224;2023-03-31T03:45:50;10.60;99.90
20712;DHT22;10517;50.742;4.224;2023-03-31T03:48:17;10.70;99.90
20712;DHT22;10517;50.742;4.224;2023-03-31T03:50:44;10.50;99.90
20712;DHT22;10517;50.742;4.224;2023-03-31T03:53:11;10.50;99.90
20712;DHT22;10517;50.742;4.224;2023-03-31T03:55:37;10.60;99.90
20712;DHT22;10517;50.742;4.224;2023-03-31T03:58:02;10.60;99.90
20712;DHT22;10517;50.742;4.224;2023-03-31T04:00:28;10.60;99.90
20712;DHT22;10517;50.742;4.224;2023-03-31T04:02:53;10.70;99.90
20712;DHT22;10517;50.742;4.224;2023-03-31T04:05:19;10.80;99.90
20712;DHT22;10517;50.742;4.224;2023-03-31T04:07:44;10.70;99.90
20712;DHT22;10517;50.742;4.224;2023-03-31T04:10:10;10.70;99.90
20712;DHT22;10517;50.742;4.224;2023-03-31T04:12:36;10.60;99.90
20712;DHT22;10517;50.742;4.224;2023-03-31T04:15:02;10.70;99.90
20712;DHT22;10517;50.742;4.224;2023-03-31T04:17:27;10.60;99.90
20712;DHT22;10517;50.742;4.224;2023-03-31T04:20:07;10.60;99.90
20712;DHT22;10517;50.742;4.224;2023-03-31T04:22:35;10.70;99.90
20712;DHT22;10517;50.742;4.224;2023-03-31T04:25:09;10.70;99.90
20712;DHT22;10517;50.742;4.224;2023-03-31T04:27:46;10.70;99.90
20712;DHT22;10517;50.742;4.224;2023-03-31T04:30:17;10.80;99.90
20712;DHT22;10517;50.742;4.224;2023-03-31T04:33:03;10.80;99.90
20712;DHT22;10517;50.742;4.224;2023-03-31T04:35:31;10.90;99.90
20712;DHT22;10517;50.742;4.224;2023-03-31T04:38:18;10.90;99.90
20712;DHT22;10517;50.742;4.224;2023-03-31T04:40:46;10.80;99.90
20712;DHT22;10517;50.742;4.224;2023-03-31T04:43:12;10.90;99.90
20712;DHT22;10517;50.742;4.224;2023-03-31T04:45:37;10.90;99.90
20712;DHT22;10517;50.742;4.224;2023-03-31T04:48:03;10.90;99.90
20712;DHT22;10517;50.742;4.224;2023-03-31T04:50:29;11.00;99.90
20712;DHT22;10517;50.742;4.224;2023-03-31T04:52:54;11.00;99.90
20712;DHT22;10517;50.742;4.224;2023-03-31T04:55:20;11.00;99.90
20712;DHT22;10517;50.742;4.224;2023-03-31T04:57:46;11.00;99.90
20712;DHT22;10517;50.742;4.224;2023-03-31T05:00:12;11.00;99.90
20712;DHT22;10517;50.742;4.224;2023-03-31T05:02:37;11.00;99.90
20712;DHT22;10517;50.742;4.224;2023-03-31T05:05:03;11.10;99.90
20712;DHT22;10517;50.742;4.224;2023-03-31T05:07:29;11.00;99.90
20712;DHT22;10517;50.742;4.224;2023-03-31T05:09:55;11.00;99.90
20712;DHT22;10517;50.742;4.224;2023-03-31T05:12:20;11.00;99.90
20712;DHT22;10517;50.742;4.224;2023-03-31T05:14:46;11.10;99.90
20712;DHT22;10517;50.742;4.224;2023-03-31T05:17:11;11.10;99.90
20712;DHT22;10517;50.742;4.224;2023-03-31T05:19:37;11.10;99.90
20712;DHT22;10517;50.742;4.224;2023-03-31T05:22:02;11.20;99.90
20712;DHT22;10517;50.742;4.224;2023-03-31T05:24:28;11.10;99.90
20712;DHT22;10517;50.742;4.224;2023-03-31T05:26:54;11.10;99.90
20712;DHT22;10517;50.742;4.224;2023-03-31T05:29:22;11.10;99.90
20712;DHT22;10517;50.742;4.224;2023-03-31T05:31:48;11.00;99.90
20712;DHT22;10517;50.742;4.224;2023-03-31T05:34:14;11.10;99.90
20712;DHT22;10517;50.742;4.224;2023-03-31T05:36:40;11.00;99.90
20712;DHT22;10517;50.742;4.224;2023-03-31T05:39:08;11.10;99.90
20712;DHT22;10517;50.742;4.224;2023-03-31T05:41:34;11.20;99.90
20712;DHT22;10517;50.742;4.224;2023-03-31T05:44:00;11.10;99.90
20712;DHT22;10517;50.742;4.224;2023-03-31T05:46:26;11.20;99.90
20712;DHT22;10517;50.742;4.224;2023-03-31T05:48:52;11.20;99.90
20712;DHT22;10517;50.742;4.224;2023-03-31T05:51:18;11.20;99.90
20712;DHT22;10517;50.742;4.224;2023-03-31T05:53:43;11.30;99.90
20712;DHT22;10517;50.742;4.224;2023-03-31T05:56:09;11.30;99.90
20712;DHT22;10517;50.742;4.224;2023-03-31T05:58:35;11.30;99.90
20712;DHT22;10517;50.742;4.224;2023-03-31T06:01:07;11.30;99.90
20712;DHT22;10517;50.742;4.224;2023-03-31T06:03:34;11.30;99.90
20712;DHT22;10517;50.742;4.224;2023-03-31T06:06:01;11.40;99.90
20712;DHT22;10517;50.742;4.224;2023-03-31T06:08:28;11.40;99.90
20712;DHT22;10517;50.742;4.224;2023-03-31T06:10:53;11.40;99.90
20712;DHT22;10517;50.742;4.224;2023-03-31T06:13:19;11.40;99.90
20712;DHT22;10517;50.742;4.224;2023-03-31T06:15:55;11.50;99.90
20712;DHT22;10517;50.742;4.224;2023-03-31T06:18:22;11.50;99.90
20712;DHT22;10517;50.742;4.224;2023-03-31T06:20:50;11.60;99.90
20712;DHT22;10517;50.742;4.224;2023-03-31T06:23:16;11.60;99.90
20712;DHT22;10517;50.742;4.224;2023-03-31T06:25:41;11.70;99.90
20712;DHT22;10517;50.742;4.224;2023-03-31T06:28:07;11.70;99.90
20712;DHT22;10517;50.742;4.224;2023-03-31T06:30:33;11.70;99.90
20712;DHT22;10517;50.742;4.224;2023-03-31T06:32:58;11.80;99.90
20712;DHT22;10517;50.742;4.224;2023-03-31T06:35:24;11.80;99.90
20712;DHT22;10517;50.742;4.224;2023-03-31T06:37:50;11.80;99.90
20712;DHT22;10517;50.742;4.224;2023-03-31T06:40:16;11.80;99.90
20712;DHT22;10517;50.742;4.224;2023-03-31T06:42:41;11.90;99.90
20712;DHT22;10517;50.742;4.224;2023-03-31T06:45:07;11.90;99.90
20712;DHT22;10517;50.742;4.224;2023-03-31T06:47:33;11.90;99.90
20712;DHT22;10517;50.742;4.224;2023-03-31T06:49:58;12.00;99.90
20712;DHT22;10517;50.742;4.224;2023-03-31T06:52:24;12.00;99.90
20712;DHT22;10517;50.742;4.224;2023-03-31T06:54:49;11.90;99.90
20712;DHT22;10517;50.742;4.224;2023-03-31T06:57:15;11.90;99.90
20712;DHT22;10517;50.742;4.224;2023-03-31T06:59:40;12.00;99.90
20712;DHT22;10517;50.742;4.224;2023-03-31T07:02:08;12.10;99.90
20712;DHT22;10517;50.742;4.224;2023-03-31T07:04:33;12.10;99.90
20712;DHT22;10517;50.742;4.224;2023-03-31T07:06:59;12.10;99.90
20712;DHT22;10517;50.742;4.224;2023-03-31T07:09:25;12.20;99.90
20712;DHT22;10517;50.742;4.224;2023-03-31T07:11:51;12.10;99.90
20712;DHT22;10517;50.742;4.224;2023-03-31T07:14:16;12.20;99.90
20712;DHT22;10517;50.742;4.224;2023-03-31T07:16:42;12.20;99.90
20712;DHT22;10517;50.742;4.224;2023-03-31T07:19:07;12.30;99.90
20712;DHT22;10517;50.742;4.224;2023-03-31T07:21:35;12.40;99.90
20712;DHT22;10517;50.742;4.224;2023-03-31T07:24:01;12.30;99.90
20712;DHT22;10517;50.742;4.224;2023-03-31T07:26:26;12.30;99.90
20712;DHT22;10517;50.742;4.224;2023-03-31T07:28:52;12.40;99.90
20712;DHT22;10517;50.742;4.224;2023-03-31T07:31:21;12.50;99.90
20712;DHT22;10517;50.742;4.224;2023-03-31T07:33:46;12.20;99.90
20712;DHT22;10517;50.742;4.224;2023-03-31T07:36:12;12.30;99.90
20712;DHT22;10517;50.742;4.224;2023-03-31T07:38:39;12.30;99.90
20712;DHT22;10517;50.742;4.224;2023-03-31T07:41:09;12.20;99.90
20712;DHT22;10517;50.742;4.224;2023-03-31T07:43:36;12.30;99.90
20712;DHT22;10517;50.742;4.224;2023-03-31T07:46:01;12.30;99.90
20712;DHT22;10517;50.742;4.224;2023-03-31T07:48:27;12.20;99.90
20712;DHT22;10517;50.742;4.224;2023-03-31T07:50:54;12.20;99.90
20712;DHT22;10517;50.742;4.224;2023-03-31T07:53:19;12.20;99.90
20712;DHT22;10517;50.742;4.224;2023-03-31T07:55:46;12.20;99.90
20712;DHT22;10517;50.742;4.224;2023-03-31T07:58:12;12.30;99.90
20712;DHT22;10517;50.742;4.224;2023-03-31T08:00:37;12.40;99.90
20712;DHT22;10517;50.742;4.224;2023-03-31T08:03:03;12.40;99.90
20712;DHT22;10517;50.742;4.224;2023-03-31T08:05:29;12.50;99.90
20712;DHT22;10517;50.742;4.224;2023-03-31T08:07:54;12.70;99.90
20712;DHT22;10517;50.742;4.224;2023-03-31T08:10:24;12.60;99.90
20712;DHT22;10517;50.742;4.224;2023-03-31T08:12:50;12.70;99.90
20712;DHT22;10517;50.742;4.224;2023-03-31T08:15:16;12.70;99.90
20712;DHT22;10517;50.742;4.224;2023-03-31T08:17:43;12.70;99.90
20712;DHT22;10517;50.742;4.224;2023-03-31T08:20:09;12.80;99.90
20712;DHT22;10517;50.742;4.224;2023-03-31T08:22:36;12.70;99.90
20712;DHT22;10517;50.742;4.224;2023-03-31T08:25:03;12.80;99.90
20712;DHT22;10517;50.742;4.224;2023-03-31T08:27:34;12.80;99.90
20712;DHT22;10517;50.742;4.224;2023-03-31T08:29:59;12.70;99.90
20712;DHT22;10517;50.742;4.224;2023-03-31T08:32:29;12.70;99.90
20712;DHT22;10517;50.742;4.224;2023-03-31T08:34:58;12.80;99.90
20712;DHT22;10517;50.742;4.224;2023-03-31T08:37:24;12.70;99.90
20712;DHT22;10517;50.742;4.224;2023-03-31T08:39:50;12.60;99.90
20712;DHT22;10517;50.742;4.224;2023-03-31T08:42:20;12.70;99.90
20712;DHT22;10517;50.742;4.224;2023-03-31T08:47:33;12.50;99.90
20712;DHT22;10517;50.742;4.224;2023-03-31T08:50:10;12.40;99.90
20712;DHT22;10517;50.742;4.224;2023-03-31T08:55:52;12.60;99.90
20712;DHT22;10517;50.742;4.224;2023-03-31T08:58:39;12.60;99.90
20712;DHT22;10517;50.742;4.224;2023-03-31T09:03:40;12.50;99.90
20712;DHT22;10517;50.742;4.224;2023-03-31T09:06:16;12.50;99.90
20712;DHT22;10517;50.742;4.224;2023-03-31T09:08:43;12.70;99.90
20712;DHT22;10517;50.742;4.224;2023-03-31T09:11:25;12.70;99.90
20712;DHT22;10517;50.742;4.224;2023-03-31T09:14:09;12.70;99.90
20712;DHT22;10517;50.742;4.224;2023-03-31T09:16:47;12.90;99.90
20712;DHT22;10517;50.742;4.224;2023-03-31T09:19:18;13.00;99.90
20712;DHT22;10517;50.742;4.224;2023-03-31T09:21:50;13.20;99.90
20712;DHT22;10517;50.742;4.224;2023-03-31T09:24:22;13.40;99.90
20712;DHT22;10517;50.742;4.224;2023-03-31T09:26:57;13.40;99.90
20712;DHT22;10517;50.742;4.224;2023-03-31T09:34:44;13.50;99.90
20712;DHT22;10517;50.742;4.224;2023-03-31T09:37:11;13.30;99.90
20712;DHT22;10517;50.742;4.224;2023-03-31T09:39:38;13.30;99.90
20712;DHT22;10517;50.742;4.224;2023-03-31T09:42:04;13.20;99.90
20712;DHT22;10517;50.742;4.224;2023-03-31T09:44:42;13.00;99.90
20712;DHT22;10517;50.742;4.224;2023-03-31T09:47:19;12.90;99.90
20712;DHT22;10517;50.742;4.224;2023-03-31T09:49:46;12.80;99.90
20712;DHT22;10517;50.742;4.224;2023-03-31T09:52:31;12.60;99.90
20712;DHT22;10517;50.742;4.224;2023-03-31T09:55:00;12.70;99.90
20712;DHT22;10517;50.742;4.224;2023-03-31T09:57:29;12.80;99.90
20712;DHT22;10517;50.742;4.224;2023-03-31T10:02:48;13.00;99.90
20712;DHT22;10517;50.742;4.224;2023-03-31T10:08:18;13.10;99.90
20712;DHT22;10517;50.742;4.224;2023-03-31T10:10:43;13.20;99.90
20712;DHT22;10517;50.742;4.224;2023-03-31T10:13:14;13.10;99.90
20712;DHT22;10517;50.742;4.224;2023-03-31T10:15:41;13.10;99.90
20712;DHT22;10517;50.742;4.224;2023-03-31T10:18:15;13.10;99.90
20712;DHT22;10517;50.742;4.224;2023-03-31T10:20:47;13.20;99.90
20712;DHT22;10517;50.742;4.224;2023-03-31T10:23:26;13.30;99.90
20712;DHT22;10517;50.742;4.224;2023-03-31T10:25:53;13.40;99.90
20712;DHT22;10517;50.742;4.224;2023-03-31T10:28:19;13.50;99.90
20712;DHT22;10517;50.742;4.224;2023-03-31T10:30:48;13.50;99.90
20712;DHT22;10517;50.742;4.224;2023-03-31T10:33:26;13.60;99.90
20712;DHT22;10517;50.742;4.224;2023-03-31T10:35:58;13.60;99.90
20712;DHT22;10517;50.742;4.224;2023-03-31T10:38:35;13.70;99.90
20712;DHT22;10517;50.742;4.224;2023-03-31T10:41:01;13.60;99.90
20712;DHT22;10517;50.742;4.224;2023-03-31T10:43:37;13.50;99.90
20712;DHT22;10517;50.742;4.224;2023-03-31T10:46:05;13.60;99.90
20712;DHT22;10517;50.742;4.224;2023-03-31T10:48:33;13.60;99.90
20712;DHT22;10517;50.742;4.224;2023-03-31T10:51:04;13.40;99.90
20712;DHT22;10517;50.742;4.224;2023-03-31T10:53:43;13.40;99.90
20712;DHT22;10517;50.742;4.224;2023-03-31T11:07:13;13.20;99.90
20712;DHT22;10517;50.742;4.224;2023-03-31T11:15:46;13.10;99.90
20712;DHT22;10517;50.742;4.224;2023-03-31T11:21:19;13.50;99.90
20712;DHT22;10517;50.742;4.224;2023-03-31T11:29:50;13.70;99.90
20712;DHT22;10517;50.742;4.224;2023-03-31T11:41:33;13.70;99.90
20712;DHT22;10517;50.742;4.224;2023-03-31T11:44:06;13.60;99.90
20712;DHT22;10517;50.742;4.224;2023-03-31T11:46:53;13.40;99.90
20712;DHT22;10517;50.742;4.224;2023-03-31T11:49:44;13.40;99.90
20712;DHT22;10517;50.742;4.224;2023-03-31T11:52:16;13.40;99.90
20712;DHT22;10517;50.742;4.224;2023-03-31T11:55:14;13.30;99.90
20712;DHT22;10517;50.742;4.224;2023-03-31T11:57:55;13.40;99.90
20712;DHT22;10517;50.742;4.224;2023-03-31T12:00:38;13.40;99.90
20712;DHT22;10517;50.742;4.224;2023-03-31T12:03:28;13.40;99.90
20712;DHT22;10517;50.742;4.224;2023-03-31T12:06:03;13.00;99.90
20712;DHT22;10517;50.742;4.224;2023-03-31T12:08:40;12.90;99.90
20712;DHT22;10517;50.742;4.224;2023-03-31T12:11:26;12.80;99.90
20712;DHT22;10517;50.742;4.224;2023-03-31T12:14:26;12.70;99.90
20712;DHT22;10517;50.742;4.224;2023-03-31T12:16:59;12.60;99.90
20712;DHT22;10517;50.742;4.224;2023-03-31T12:19:35;12.60;99.90
20712;DHT22;10517;50.742;4.224;2023-03-31T12:22:18;12.60;99.90
20712;DHT22;10517;50.742;4.224;2023-03-31T12:24:46;12.60;99.90
20712;DHT22;10517;50.742;4.224;2023-03-31T12:27:29;12.70;99.90
20712;DHT22;10517;50.742;4.224;2023-03-31T12:30:00;12.70;99.90
20712;DHT22;10517;50.742;4.224;2023-03-31T12:32:37;12.80;99.90
20712;DHT22;10517;50.742;4.224;2023-03-31T12:35:15;13.00;99.90
20712;DHT22;10517;50.742;4.224;2023-03-31T12:38:15;13.30;99.90
20712;DHT22;10517;50.742;4.224;2023-03-31T12:40:45;13.50;99.90
20712;DHT22;10517;50.742;4.224;2023-03-31T12:57:12;14.00;99.90
20712;DHT22;10517;50.742;4.224;2023-03-31T12:59:41;14.00;99.90
20712;DHT22;10517;50.742;4.224;2023-03-31T13:04:42;14.10;99.90
20712;DHT22;10517;50.742;4.224;2023-03-31T13:09:56;14.10;99.90
20712;DHT22;10517;50.742;4.224;2023-03-31T13:12:24;13.90;99.90
20712;DHT22;10517;50.742;4.224;2023-03-31T13:14:54;14.00;99.90
20712;DHT22;10517;50.742;4.224;2023-03-31T13:17:30;13.90;99.90
20712;DHT22;10517;50.742;4.224;2023-03-31T13:28:17;13.60;99.90
20712;DHT22;10517;50.742;4.224;2023-03-31T13:30:52;13.50;99.90
20712;DHT22;10517;50.742;4.224;2023-03-31T13:33:33;13.40;99.90
20712;DHT22;10517;50.742;4.224;2023-03-31T13:46:49;13.50;99.90
20712;DHT22;10517;50.742;4.224;2023-03-31T13:52:30;13.40;99.90
20712;DHT22;10517;50.742;4.224;2023-03-31T13:55:33;13.30;99.90
20712;DHT22;10517;50.742;4.224;2023-03-31T13:58:19;13.20;99.90
20712;DHT22;10517;50.742;4.224;2023-03-31T14:06:49;13.50;99.90
20712;DHT22;10517;50.742;4.224;2023-03-31T14:09:24;13.50;99.90
20712;DHT22;10517;50.742;4.224;2023-03-31T14:11:51;13.50;99.90
20712;DHT22;10517;50.742;4.224;2023-03-31T14:14:17;13.70;99.90
20712;DHT22;10517;50.742;4.224;2023-03-31T14:16:44;13.90;99.90
20712;DHT22;10517;50.742;4.224;2023-03-31T14:24:49;14.30;99.90
20712;DHT22;10517;50.742;4.224;2023-03-31T14:27:42;14.40;99.90
20712;DHT22;10517;50.742;4.224;2023-03-31T14:38:08;14.30;99.90
20712;DHT22;10517;50.742;4.224;2023-03-31T14:40:47;14.20;99.90
20712;DHT22;10517;50.742;4.224;2023-03-31T14:43:24;14.00;99.90
20712;DHT22;10517;50.742;4.224;2023-03-31T14:46:10;13.80;99.90
20712;DHT22;10517;50.742;4.224;2023-03-31T14:48:43;13.60;99.90
20712;DHT22;10517;50.742;4.224;2023-03-31T14:51:10;13.50;99.90
20712;DHT22;10517;50.742;4.224;2023-03-31T14:53:37;13.50;99.90
20712;DHT22;10517;50.742;4.224;2023-03-31T14:56:12;13.40;99.90
20712;DHT22;10517;50.742;4.224;2023-03-31T14:58:42;13.40;99.90
20712;DHT22;10517;50.742;4.224;2023-03-31T15:01:13;13.40;99.90
20712;DHT22;10517;50.742;4.224;2023-03-31T15:03:41;13.40;99.90
20712;DHT22;10517;50.742;4.224;2023-03-31T15:06:07;13.60;99.90
20712;DHT22;10517;50.742;4.224;2023-03-31T15:08:34;13.60;99.90
20712;DHT22;10517;50.742;4.224;2023-03-31T15:11:05;13.70;99.90
20712;DHT22;10517;50.742;4.224;2023-03-31T15:13:39;13.50;99.90
20712;DHT22;10517;50.742;4.224;2023-03-31T15:16:29;13.40;99.90
20712;DHT22;10517;50.742;4.224;2023-03-31T15:18:57;13.40;99.90
20712;DHT22;10517;50.742;4.224;2023-03-31T15:21:25;13.60;99.90
20712;DHT22;10517;50.742;4.224;2023-03-31T15:23:54;13.60;99.90
20712;DHT22;10517;50.742;4.224;2023-03-31T15:26:28;13.60;99.90
20712;DHT22;10517;50.742;4.224;2023-03-31T15:28:58;13.70;99.90
20712;DHT22;10517;50.742;4.224;2023-03-31T15:31:25;13.70;99.90
20712;DHT22;10517;50.742;4.224;2023-03-31T15:33:52;13.60;99.90
20712;DHT22;10517;50.742;4.224;2023-03-31T15:36:19;13.60;99.90
20712;DHT22;10517;50.742;4.224;2023-03-31T15:38:46;13.70;99.90
20712;DHT22;10517;50.742;4.224;2023-03-31T15:41:13;13.90;99.90
20712;DHT22;10517;50.742;4.224;2023-03-31T15:46:10;14.00;99.90
20712;DHT22;10517;50.742;4.224;2023-03-31T15:48:47;13.80;99.90
20712;DHT22;10517;50.742;4.224;2023-03-31T15:53:49;13.70;99.90
20712;DHT22;10517;50.742;4.224;2023-03-31T15:56:43;13.70;99.90
20712;DHT22;10517;50.742;4.224;2023-03-31T15:59:22;13.60;99.90
20712;DHT22;10517;50.742;4.224;2023-03-31T16:01:49;13.50;99.90
20712;DHT22;10517;50.742;4.224;2023-03-31T16:04:15;13.30;99.90
20712;DHT22;10517;50.742;4.224;2023-03-31T16:06:52;13.10;99.90
20712;DHT22;10517;50.742;4.224;2023-03-31T16:12:01;12.80;99.90
20712;DHT22;10517;50.742;4.224;2023-03-31T16:14:33;12.70;99.90
20712;DHT22;10517;50.742;4.224;2023-03-31T16:17:19;12.70;99.90
20712;DHT22;10517;50.742;4.224;2023-03-31T16:20:02;12.70;99.90
20712;DHT22;10517;50.742;4.224;2023-03-31T16:22:38;12.70;99.90
20712;DHT22;10517;50.742;4.224;2023-03-31T16:25:14;12.50;99.90
20712;DHT22;10517;50.742;4.224;2023-03-31T16:27:43;12.50;99.90
20712;DHT22;10517;50.742;4.224;2023-03-31T16:30:35;12.50;99.90
20712;DHT22;10517;50.742;4.224;2023-03-31T16:33:14;12.60;99.90
20712;DHT22;10517;50.742;4.224;2023-03-31T16:35:44;12.60;99.90
20712;DHT22;10517;50.742;4.224;2023-03-31T16:38:11;12.60;99.90
20712;DHT22;10517;50.742;4.224;2023-03-31T16:40:42;12.60;99.90
20712;DHT22;10517;50.742;4.224;2023-03-31T16:43:15;12.40;99.90
20712;DHT22;10517;50.742;4.224;2023-03-31T16:46:01;12.30;99.90
20712;DHT22;10517;50.742;4.224;2023-03-31T16:48:29;12.20;99.90
20712;DHT22;10517;50.742;4.224;2023-03-31T16:50:57;12.20;99.90
20712;DHT22;10517;50.742;4.224;2023-03-31T16:53:27;12.10;99.90
20712;DHT22;10517;50.742;4.224;2023-03-31T16:55:53;12.00;99.90
20712;DHT22;10517;50.742;4.224;2023-03-31T16:58:20;12.10;99.90
20712;DHT22;10517;50.742;4.224;2023-03-31T17:00:46;11.90;99.90
20712;DHT22;10517;50.742;4.224;2023-03-31T17:03:12;11.80;99.90
20712;DHT22;10517;50.742;4.224;2023-03-31T17:05:40;11.70;99.90
20712;DHT22;10517;50.742;4.224;2023-03-31T17:08:07;11.70;99.90
20712;DHT22;10517;50.742;4.224;2023-03-31T17:10:34;11.70;99.90
20712;DHT22;10517;50.742;4.224;2023-03-31T17:13:00;11.60;99.90
20712;DHT22;10517;50.742;4.224;2023-03-31T17:15:25;11.60;99.90
20712;DHT22;10517;50.742;4.224;2023-03-31T17:17:53;11.50;99.90
20712;DHT22;10517;50.742;4.224;2023-03-31T17:20:19;11.50;99.90
20712;DHT22;10517;50.742;4.224;2023-03-31T17:22:44;11.40;99.90
20712;DHT22;10517;50.742;4.224;2023-03-31T17:25:11;11.50;99.90
20712;DHT22;10517;50.742;4.224;2023-03-31T17:27:37;11.50;99.90
20712;DHT22;10517;50.742;4.224;2023-03-31T17:30:03;11.40;99.90
20712;DHT22;10517;50.742;4.224;2023-03-31T17:32:30;11.40;99.90
20712;DHT22;10517;50.742;4.224;2023-03-31T17:34:55;11.30;99.90
20712;DHT22;10517;50.742;4.224;2023-03-31T17:37:21;11.30;99.90
20712;DHT22;10517;50.742;4.224;2023-03-31T17:39:46;11.30;99.90
20712;DHT22;10517;50.742;4.224;2023-03-31T17:42:13;11.20;99.90
20712;DHT22;10517;50.742;4.224;2023-03-31T17:44:39;11.20;99.90
20712;DHT22;10517;50.742;4.224;2023-03-31T17:47:05;11.10;99.90
20712;DHT22;10517;50.742;4.224;2023-03-31T17:49:31;11.20;99.90
20712;DHT22;10517;50.742;4.224;2023-03-31T17:51:57;11.20;99.90
20712;DHT22;10517;50.742;4.224;2023-03-31T17:54:23;11.20;99.90
20712;DHT22;10517;50.742;4.224;2023-03-31T17:56:49;11.30;99.90
20712;DHT22;10517;50.742;4.224;2023-03-31T17:59:16;11.30;99.90
20712;DHT22;10517;50.742;4.224;2023-03-31T18:01:42;11.20;99.90
20712;DHT22;10517;50.742;4.224;2023-03-31T18:04:08;11.20;99.90
20712;DHT22;10517;50.742;4.224;2023-03-31T18:06:34;11.20;99.90
20712;DHT22;10517;50.742;4.224;2023-03-31T18:09:00;11.20;99.90
20712;DHT22;10517;50.742;4.224;2023-03-31T18:11:26;11.10;99.90
20712;DHT22;10517;50.742;4.224;2023-03-31T18:13:52;11.10;99.90
20712;DHT22;10517;50.742;4.224;2023-03-31T18:16:18;11.00;99.90
20712;DHT22;10517;50.742;4.224;2023-03-31T18:18:44;10.90;99.90
20712;DHT22;10517;50.742;4.224;2023-03-31T18:21:12;10.90;99.90
20712;DHT22;10517;50.742;4.224;2023-03-31T18:23:38;10.90;99.90
20712;DHT22;10517;50.742;4.224;2023-03-31T18:26:10;10.90;99.90
20712;DHT22;10517;50.742;4.224;2023-03-31T18:28:36;10.90;99.90
20712;DHT22;10517;50.742;4.224;2023-03-31T18:31:06;11.00;99.90